sensor_id;sensor_type;location;lat;lon;timestamp;pressure;altitude;pressure_sealevel;temperature;humidity
73106;BME280;61559;50.476;15.588;2023-04-19T00:01:34;98124.13;;;9.64;79.54
73106;BME280;61559;50.476;15.588;2023-04-19T00:04:06;98123.08;;;9.62;79.88
73106;BME280;61559;50.476;15.588;2023-04-19T00:06:39;98119.38;;;9.62;80.14
73106;BME280;61559;50.476;15.588;2023-04-19T00:09:10;98113.44;;;9.63;80.23
73106;BME280;61559;50.476;15.588;2023-04-19T00:11:40;98110.41;;;9.65;80.48
73106;BME280;61559;50.476;15.588;2023-04-19T00:14:11;98105.85;;;9.65;80.61
73106;BME280;61559;50.476;15.588;2023-04-19T00:16:42;98099.95;;;9.67;80.75
73106;BME280;61559;50.476;15.588;2023-04-19T00:19:14;98093.45;;;9.65;80.95
73106;BME280;61559;50.476;15.588;2023-04-19T00:21:45;98097.27;;;9.65;81.01
73106;BME280;61559;50.476;15.588;2023-04-19T00:24:16;98096.14;;;9.64;81.01
73106;BME280;61559;50.476;15.588;2023-04-19T00:26:47;98092.27;;;9.65;81.08
73106;BME280;61559;50.476;15.588;2023-04-19T00:29:19;98088.14;;;9.66;81.16
73106;BME280;61559;50.476;15.588;2023-04-19T00:31:50;98082.27;;;9.66;81.25
73106;BME280;61559;50.476;15.588;2023-04-19T00:34:21;98079.14;;;9.65;81.43
73106;BME280;61559;50.476;15.588;2023-04-19T00:36:52;98077.05;;;9.64;81.42
73106;BME280;61559;50.476;15.588;2023-04-19T00:39:24;98076.31;;;9.63;81.48
73106;BME280;61559;50.476;15.588;2023-04-19T00:41:55;98073.39;;;9.62;81.59
73106;BME280;61559;50.476;15.588;2023-04-19T00:44:27;98067.88;;;9.58;81.71
73106;BME280;61559;50.476;15.588;2023-04-19T00:47:00;98069.31;;;9.58;81.79
73106;BME280;61559;50.476;15.588;2023-04-19T00:49:32;98067.19;;;9.55;81.76
73106;BME280;61559;50.476;15.588;2023-04-19T00:52:04;98062.95;;;9.52;81.82
73106;BME280;61559;50.476;15.588;2023-04-19T00:54:35;98056.63;;;9.49;81.93
73106;BME280;61559;50.476;15.588;2023-04-19T00:57:07;98051.73;;;9.47;82.03
73106;BME280;61559;50.476;15.588;2023-04-19T00:59:39;98049.26;;;9.45;82.18
73106;BME280;61559;50.476;15.588;2023-04-19T01:02:10;98046.64;;;9.44;82.27
73106;BME280;61559;50.476;15.588;2023-04-19T01:04:42;98042.13;;;9.43;82.37
73106;BME280;61559;50.476;15.588;2023-04-19T01:07:13;98042.67;;;9.42;82.41
73106;BME280;61559;50.476;15.588;2023-04-19T01:09:45;98040.39;;;9.40;82.23
73106;BME280;61559;50.476;15.588;2023-04-19T01:12:17;98039.67;;;9.37;82.37
73106;BME280;61559;50.476;15.588;2023-04-19T01:14:48;98038.75;;;9.34;82.53
73106;BME280;61559;50.476;15.588;2023-04-19T01:17:20;98031.15;;;9.31;82.71
73106;BME280;61559;50.476;15.588;2023-04-19T01:19:59;98025.91;;;9.28;82.78
73106;BME280;61559;50.476;15.588;2023-04-19T01:22:31;98024.67;;;9.25;82.98
73106;BME280;61559;50.476;15.588;2023-04-19T01:25:04;98024.59;;;9.24;82.99
73106;BME280;61559;50.476;15.588;2023-04-19T01:27:36;98020.63;;;9.21;83.07
73106;BME280;61559;50.476;15.588;2023-04-19T01:30:08;98013.59;;;9.18;83.05
73106;BME280;61559;50.476;15.588;2023-04-19T01:32:39;98011.76;;;9.17;83.16
73106;BME280;61559;50.476;15.588;2023-04-19T01:35:11;98009.82;;;9.15;83.15
73106;BME280;61559;50.476;15.588;2023-04-19T01:37:42;98007.42;;;9.14;83.11
73106;BME280;61559;50.476;15.588;2023-04-19T01:40:15;98010.04;;;9.15;83.18
73106;BME280;61559;50.476;15.588;2023-04-19T01:42:46;98006.38;;;9.13;83.34
73106;BME280;61559;50.476;15.588;2023-04-19T01:45:17;98003.29;;;9.10;83.47
73106;BME280;61559;50.476;15.588;2023-04-19T01:47:49;98003.14;;;9.10;83.46
73106;BME280;61559;50.476;15.588;2023-04-19T01:50:20;97999.75;;;9.09;83.48
73106;BME280;61559;50.476;15.588;2023-04-19T01:52:51;97995.23;;;9.09;83.59
73106;BME280;61559;50.476;15.588;2023-04-19T01:55:22;97990.21;;;9.08;83.58
73106;BME280;61559;50.476;15.588;2023-04-19T01:57:54;97990.37;;;9.09;83.44
73106;BME280;61559;50.476;15.588;2023-04-19T02:00:25;97989.04;;;9.07;83.47
73106;BME280;61559;50.476;15.588;2023-04-19T02:02:56;97987.80;;;9.06;83.49
73106;BME280;61559;50.476;15.588;2023-04-19T02:05:28;97983.23;;;9.04;83.46
73106;BME280;61559;50.476;15.588;2023-04-19T02:07:59;97982.74;;;9.03;83.56
73106;BME280;61559;50.476;15.588;2023-04-19T02:10:31;97985.81;;;9.02;83.49
73106;BME280;61559;50.476;15.588;2023-04-19T02:13:02;97977.15;;;9.00;83.56
73106;BME280;61559;50.476;15.588;2023-04-19T02:15:31;97979.22;;;8.99;83.52
73106;BME280;61559;50.476;15.588;2023-04-19T02:18:03;97980.05;;;8.96;83.68
73106;BME280;61559;50.476;15.588;2023-04-19T02:20:36;97975.01;;;8.94;83.75
73106;BME280;61559;50.476;15.588;2023-04-19T02:23:07;97974.73;;;8.89;83.78
73106;BME280;61559;50.476;15.588;2023-04-19T02:25:38;97973.46;;;8.84;84.03
73106;BME280;61559;50.476;15.588;2023-04-19T02:28:09;97978.27;;;8.82;83.82
73106;BME280;61559;50.476;15.588;2023-04-19T02:30:41;97976.17;;;8.82;83.59
73106;BME280;61559;50.476;15.588;2023-04-19T02:33:13;97975.08;;;8.80;83.06
73106;BME280;61559;50.476;15.588;2023-04-19T02:35:44;97965.31;;;8.83;81.34
73106;BME280;61559;50.476;15.588;2023-04-19T02:38:15;97957.79;;;8.85;81.79
73106;BME280;61559;50.476;15.588;2023-04-19T02:40:46;97958.08;;;8.86;82.01
73106;BME280;61559;50.476;15.588;2023-04-19T02:43:17;97962.73;;;8.85;82.32
73106;BME280;61559;50.476;15.588;2023-04-19T02:45:47;97956.19;;;8.82;82.59
73106;BME280;61559;50.476;15.588;2023-04-19T02:48:18;97953.93;;;8.76;82.34
73106;BME280;61559;50.476;15.588;2023-04-19T02:50:49;97948.98;;;8.71;81.53
73106;BME280;61559;50.476;15.588;2023-04-19T02:53:20;97940.95;;;8.72;81.50
73106;BME280;61559;50.476;15.588;2023-04-19T02:55:52;97931.78;;;8.71;81.27
73106;BME280;61559;50.476;15.588;2023-04-19T02:58:23;97931.16;;;8.70;81.22
73106;BME280;61559;50.476;15.588;2023-04-19T03:00:55;97931.86;;;8.67;81.51
73106;BME280;61559;50.476;15.588;2023-04-19T03:03:26;97930.11;;;8.62;81.83
73106;BME280;61559;50.476;15.588;2023-04-19T03:05:57;97936.36;;;8.57;82.07
73106;BME280;61559;50.476;15.588;2023-04-19T03:08:29;97939.83;;;8.51;82.11
73106;BME280;61559;50.476;15.588;2023-04-19T03:11:00;97936.45;;;8.47;82.22
73106;BME280;61559;50.476;15.588;2023-04-19T03:13:31;97929.00;;;8.44;82.18
73106;BME280;61559;50.476;15.588;2023-04-19T03:16:03;97922.63;;;8.42;81.72
73106;BME280;61559;50.476;15.588;2023-04-19T03:18:35;97917.90;;;8.42;81.31
73106;BME280;61559;50.476;15.588;2023-04-19T03:21:06;97912.38;;;8.43;81.20
73106;BME280;61559;50.476;15.588;2023-04-19T03:23:38;97903.45;;;8.41;81.23
73106;BME280;61559;50.476;15.588;2023-04-19T03:26:10;97892.09;;;8.35;81.30
73106;BME280;61559;50.476;15.588;2023-04-19T03:28:41;97886.23;;;8.30;80.98
73106;BME280;61559;50.476;15.588;2023-04-19T03:31:10;97885.38;;;8.23;80.92
73106;BME280;61559;50.476;15.588;2023-04-19T03:33:41;97889.33;;;8.16;80.95
73106;BME280;61559;50.476;15.588;2023-04-19T03:36:13;97883.22;;;8.09;81.38
73106;BME280;61559;50.476;15.588;2023-04-19T03:38:44;97879.06;;;8.06;81.32
73106;BME280;61559;50.476;15.588;2023-04-19T03:41:23;97880.45;;;8.03;81.23
73106;BME280;61559;50.476;15.588;2023-04-19T03:43:55;97877.84;;;7.99;81.26
73106;BME280;61559;50.476;15.588;2023-04-19T03:46:27;97877.23;;;7.96;81.29
73106;BME280;61559;50.476;15.588;2023-04-19T03:49:00;97874.20;;;7.93;81.36
73106;BME280;61559;50.476;15.588;2023-04-19T03:51:31;97871.30;;;7.90;81.37
73106;BME280;61559;50.476;15.588;2023-04-19T03:54:01;97868.76;;;7.88;81.26
73106;BME280;61559;50.476;15.588;2023-04-19T03:56:30;97867.85;;;7.84;81.27
73106;BME280;61559;50.476;15.588;2023-04-19T03:59:01;97872.25;;;7.79;81.27
73106;BME280;61559;50.476;15.588;2023-04-19T04:01:33;97873.86;;;7.75;81.38
73106;BME280;61559;50.476;15.588;2023-04-19T04:04:04;97875.55;;;7.71;81.70
73106;BME280;61559;50.476;15.588;2023-04-19T04:06:36;97876.94;;;7.67;81.61
73106;BME280;61559;50.476;15.588;2023-04-19T04:09:05;97878.80;;;7.67;81.58
73106;BME280;61559;50.476;15.588;2023-04-19T04:11:36;97879.29;;;7.64;81.18
73106;BME280;61559;50.476;15.588;2023-04-19T04:14:10;97873.67;;;7.65;81.05
73106;BME280;61559;50.476;15.588;2023-04-19T04:16:41;97872.13;;;7.67;81.01
73106;BME280;61559;50.476;15.588;2023-04-19T04:19:12;97875.98;;;7.69;80.78
73106;BME280;61559;50.476;15.588;2023-04-19T04:21:43;97873.21;;;7.70;80.60
73106;BME280;61559;50.476;15.588;2023-04-19T04:24:13;97869.98;;;7.70;80.30
73106;BME280;61559;50.476;15.588;2023-04-19T04:26:44;97871.20;;;7.71;79.82
73106;BME280;61559;50.476;15.588;2023-04-19T04:29:15;97877.45;;;7.75;79.52
73106;BME280;61559;50.476;15.588;2023-04-19T04:31:45;97877.23;;;7.76;79.01
73106;BME280;61559;50.476;15.588;2023-04-19T04:34:16;97876.21;;;7.75;78.85
73106;BME280;61559;50.476;15.588;2023-04-19T04:36:47;97872.63;;;7.75;78.05
73106;BME280;61559;50.476;15.588;2023-04-19T04:39:19;97869.07;;;7.76;78.09
73106;BME280;61559;50.476;15.588;2023-04-19T04:41:50;97871.11;;;7.77;77.31
73106;BME280;61559;50.476;15.588;2023-04-19T04:44:22;97874.39;;;7.77;77.10
73106;BME280;61559;50.476;15.588;2023-04-19T04:46:53;97873.68;;;7.76;76.35
73106;BME280;61559;50.476;15.588;2023-04-19T04:49:24;97870.34;;;7.77;76.60
73106;BME280;61559;50.476;15.588;2023-04-19T04:51:56;97864.12;;;7.78;76.41
73106;BME280;61559;50.476;15.588;2023-04-19T04:54:27;97876.25;;;7.79;75.95
73106;BME280;61559;50.476;15.588;2023-04-19T04:56:59;97869.88;;;7.78;75.31
73106;BME280;61559;50.476;15.588;2023-04-19T04:59:31;97871.98;;;7.77;75.25
73106;BME280;61559;50.476;15.588;2023-04-19T05:02:02;97867.35;;;7.78;75.07
73106;BME280;61559;50.476;15.588;2023-04-19T05:04:33;97863.95;;;7.81;75.14
73106;BME280;61559;50.476;15.588;2023-04-19T05:07:03;97861.46;;;7.82;74.70
73106;BME280;61559;50.476;15.588;2023-04-19T05:09:34;97860.04;;;7.82;74.29
73106;BME280;61559;50.476;15.588;2023-04-19T05:12:06;97859.94;;;7.85;74.32
73106;BME280;61559;50.476;15.588;2023-04-19T05:14:37;97869.09;;;7.90;74.22
73106;BME280;61559;50.476;15.588;2023-04-19T05:17:08;97868.58;;;7.94;74.08
73106;BME280;61559;50.476;15.588;2023-04-19T05:19:37;97870.95;;;7.97;73.58
73106;BME280;61559;50.476;15.588;2023-04-19T05:22:09;97868.46;;;7.99;73.31
73106;BME280;61559;50.476;15.588;2023-04-19T05:24:40;97861.98;;;8.03;73.29
73106;BME280;61559;50.476;15.588;2023-04-19T05:27:09;97857.95;;;8.05;73.09
73106;BME280;61559;50.476;15.588;2023-04-19T05:29:39;97856.17;;;8.07;73.51
73106;BME280;61559;50.476;15.588;2023-04-19T05:32:10;97856.68;;;8.10;72.83
73106;BME280;61559;50.476;15.588;2023-04-19T05:34:39;97862.66;;;8.12;72.09
73106;BME280;61559;50.476;15.588;2023-04-19T05:37:09;97858.58;;;8.11;71.21
73106;BME280;61559;50.476;15.588;2023-04-19T05:39:40;97857.52;;;8.09;71.67
73106;BME280;61559;50.476;15.588;2023-04-19T05:42:13;97853.26;;;8.10;71.31
73106;BME280;61559;50.476;15.588;2023-04-19T05:44:44;97848.27;;;8.11;71.47
73106;BME280;61559;50.476;15.588;2023-04-19T05:47:15;97849.03;;;8.11;70.96
73106;BME280;61559;50.476;15.588;2023-04-19T05:49:47;97842.84;;;8.10;70.62
73106;BME280;61559;50.476;15.588;2023-04-19T05:52:18;97844.58;;;8.10;70.93
73106;BME280;61559;50.476;15.588;2023-04-19T05:54:47;97848.96;;;8.09;69.80
73106;BME280;61559;50.476;15.588;2023-04-19T05:57:18;97841.09;;;8.07;70.18
73106;BME280;61559;50.476;15.588;2023-04-19T05:59:50;97845.64;;;8.11;70.63
73106;BME280;61559;50.476;15.588;2023-04-19T06:02:21;97845.72;;;8.16;69.89
73106;BME280;61559;50.476;15.588;2023-04-19T06:04:53;97845.06;;;8.22;70.17
73106;BME280;61559;50.476;15.588;2023-04-19T06:07:29;97835.64;;;8.27;69.52
73106;BME280;61559;50.476;15.588;2023-04-19T06:10:10;97827.15;;;8.33;69.83
73106;BME280;61559;50.476;15.588;2023-04-19T06:12:41;97822.55;;;8.41;69.44
73106;BME280;61559;50.476;15.588;2023-04-19T06:15:12;97817.21;;;8.44;68.46
73106;BME280;61559;50.476;15.588;2023-04-19T06:17:43;97816.81;;;8.46;68.74
73106;BME280;61559;50.476;15.588;2023-04-19T06:20:15;97818.48;;;8.50;68.72
73106;BME280;61559;50.476;15.588;2023-04-19T06:22:47;97821.44;;;8.54;68.42
73106;BME280;61559;50.476;15.588;2023-04-19T06:25:19;97814.06;;;8.53;67.86
73106;BME280;61559;50.476;15.588;2023-04-19T06:27:49;97807.45;;;8.47;65.16
73106;BME280;61559;50.476;15.588;2023-04-19T06:30:21;97811.88;;;8.40;65.67
73106;BME280;61559;50.476;15.588;2023-04-19T06:32:52;97808.48;;;8.31;64.32
73106;BME280;61559;50.476;15.588;2023-04-19T06:35:23;97812.12;;;8.25;64.58
73106;BME280;61559;50.476;15.588;2023-04-19T06:37:55;97814.34;;;8.24;63.79
73106;BME280;61559;50.476;15.588;2023-04-19T06:40:25;97817.02;;;8.23;63.34
73106;BME280;61559;50.476;15.588;2023-04-19T06:42:57;97816.96;;;8.24;63.31
73106;BME280;61559;50.476;15.588;2023-04-19T06:45:28;97817.95;;;8.26;62.78
73106;BME280;61559;50.476;15.588;2023-04-19T06:48:00;97818.10;;;8.23;61.46
73106;BME280;61559;50.476;15.588;2023-04-19T06:50:31;97811.95;;;8.23;61.14
73106;BME280;61559;50.476;15.588;2023-04-19T06:53:02;97815.05;;;8.21;61.54
73106;BME280;61559;50.476;15.588;2023-04-19T06:55:35;97816.17;;;8.22;60.69
73106;BME280;61559;50.476;15.588;2023-04-19T06:58:06;97822.34;;;8.24;60.43
73106;BME280;61559;50.476;15.588;2023-04-19T07:00:39;97822.16;;;8.20;59.64
73106;BME280;61559;50.476;15.588;2023-04-19T07:03:10;97820.89;;;8.19;59.66
73106;BME280;61559;50.476;15.588;2023-04-19T07:05:42;97808.45;;;8.21;59.16
73106;BME280;61559;50.476;15.588;2023-04-19T07:08:12;97807.09;;;8.25;56.29
73106;BME280;61559;50.476;15.588;2023-04-19T07:10:44;97803.05;;;8.28;57.06
73106;BME280;61559;50.476;15.588;2023-04-19T07:13:15;97798.23;;;8.30;55.70
73106;BME280;61559;50.476;15.588;2023-04-19T07:15:46;97793.42;;;8.32;54.96
73106;BME280;61559;50.476;15.588;2023-04-19T07:18:17;97786.84;;;8.37;55.25
73106;BME280;61559;50.476;15.588;2023-04-19T07:20:48;97774.66;;;8.43;55.51
73106;BME280;61559;50.476;15.588;2023-04-19T07:23:21;97770.56;;;8.52;55.82
73106;BME280;61559;50.476;15.588;2023-04-19T07:25:54;97774.63;;;8.59;55.60
73106;BME280;61559;50.476;15.588;2023-04-19T07:28:28;97769.48;;;8.63;55.44
73106;BME280;61559;50.476;15.588;2023-04-19T07:31:00;97769.02;;;8.66;55.59
73106;BME280;61559;50.476;15.588;2023-04-19T07:33:31;97763.94;;;8.67;54.81
73106;BME280;61559;50.476;15.588;2023-04-19T07:36:03;97762.39;;;8.70;55.23
73106;BME280;61559;50.476;15.588;2023-04-19T07:38:35;97754.42;;;8.77;55.62
73106;BME280;61559;50.476;15.588;2023-04-19T07:41:06;97755.65;;;8.85;55.58
73106;BME280;61559;50.476;15.588;2023-04-19T07:43:39;97755.17;;;8.96;56.21
73106;BME280;61559;50.476;15.588;2023-04-19T07:46:12;97754.26;;;9.08;55.10
73106;BME280;61559;50.476;15.588;2023-04-19T07:48:45;97756.50;;;9.13;52.97
73106;BME280;61559;50.476;15.588;2023-04-19T07:51:16;97751.20;;;9.11;51.52
73106;BME280;61559;50.476;15.588;2023-04-19T07:53:48;97751.94;;;9.06;50.37
73106;BME280;61559;50.476;15.588;2023-04-19T07:56:21;97747.05;;;8.99;50.61
73106;BME280;61559;50.476;15.588;2023-04-19T07:58:54;97743.95;;;9.02;51.60
73106;BME280;61559;50.476;15.588;2023-04-19T08:01:36;97742.72;;;9.09;52.37
73106;BME280;61559;50.476;15.588;2023-04-19T08:04:07;97736.80;;;9.10;51.78
73106;BME280;61559;50.476;15.588;2023-04-19T08:06:39;97734.31;;;9.08;50.87
73106;BME280;61559;50.476;15.588;2023-04-19T08:09:10;97731.27;;;8.99;50.49
73106;BME280;61559;50.476;15.588;2023-04-19T08:11:41;97736.12;;;8.93;51.68
73106;BME280;61559;50.476;15.588;2023-04-19T08:14:13;97731.70;;;8.96;52.40
73106;BME280;61559;50.476;15.588;2023-04-19T08:17:01;97731.85;;;9.04;52.00
73106;BME280;61559;50.476;15.588;2023-04-19T08:19:36;97729.50;;;9.12;52.90
73106;BME280;61559;50.476;15.588;2023-04-19T08:22:07;97726.48;;;9.16;45.84
73106;BME280;61559;50.476;15.588;2023-04-19T08:24:39;97723.30;;;9.14;42.60
73106;BME280;61559;50.476;15.588;2023-04-19T08:27:10;97712.12;;;9.08;42.10
73106;BME280;61559;50.476;15.588;2023-04-19T08:29:42;97716.04;;;9.06;43.77
73106;BME280;61559;50.476;15.588;2023-04-19T08:32:13;97713.45;;;9.08;43.88
73106;BME280;61559;50.476;15.588;2023-04-19T08:34:45;97721.77;;;9.13;43.93
73106;BME280;61559;50.476;15.588;2023-04-19T08:37:16;97717.05;;;9.15;42.81
73106;BME280;61559;50.476;15.588;2023-04-19T08:39:47;97718.05;;;9.14;43.45
73106;BME280;61559;50.476;15.588;2023-04-19T08:42:19;97714.52;;;9.17;41.45
73106;BME280;61559;50.476;15.588;2023-04-19T08:45:07;97710.98;;;9.16;39.78
73106;BME280;61559;50.476;15.588;2023-04-19T08:47:57;97701.41;;;9.18;39.44
73106;BME280;61559;50.476;15.588;2023-04-19T08:50:31;97700.38;;;9.23;40.22
73106;BME280;61559;50.476;15.588;2023-04-19T08:53:17;97697.23;;;9.26;37.86
73106;BME280;61559;50.476;15.588;2023-04-19T08:55:55;97694.41;;;9.26;38.42
73106;BME280;61559;50.476;15.588;2023-04-19T08:58:46;97691.84;;;9.30;40.36
73106;BME280;61559;50.476;15.588;2023-04-19T09:01:20;97702.34;;;9.43;39.86
73106;BME280;61559;50.476;15.588;2023-04-19T09:04:05;97702.63;;;9.50;39.96
73106;BME280;61559;50.476;15.588;2023-04-19T09:06:55;97690.69;;;9.56;39.86
73106;BME280;61559;50.476;15.588;2023-04-19T09:09:28;97702.27;;;9.68;41.50
73106;BME280;61559;50.476;15.588;2023-04-19T09:12:17;97696.80;;;9.81;44.29
73106;BME280;61559;50.476;15.588;2023-04-19T09:14:48;97692.68;;;9.92;45.67
73106;BME280;61559;50.476;15.588;2023-04-19T09:17:30;97696.54;;;10.04;45.28
73106;BME280;61559;50.476;15.588;2023-04-19T09:20:02;97689.58;;;10.04;45.57
73106;BME280;61559;50.476;15.588;2023-04-19T09:22:34;97696.49;;;10.08;44.90
73106;BME280;61559;50.476;15.588;2023-04-19T09:25:07;97692.17;;;10.10;45.70
73106;BME280;61559;50.476;15.588;2023-04-19T09:27:41;97692.59;;;10.20;45.23
73106;BME280;61559;50.476;15.588;2023-04-19T09:30:12;97691.27;;;10.17;45.52
73106;BME280;61559;50.476;15.588;2023-04-19T09:32:58;97697.85;;;10.15;45.18
73106;BME280;61559;50.476;15.588;2023-04-19T09:35:42;97694.17;;;10.12;45.39
73106;BME280;61559;50.476;15.588;2023-04-19T09:38:14;97693.00;;;10.11;46.08
73106;BME280;61559;50.476;15.588;2023-04-19T09:40:45;97693.39;;;10.18;46.94
73106;BME280;61559;50.476;15.588;2023-04-19T09:43:24;97691.80;;;10.25;45.00
73106;BME280;61559;50.476;15.588;2023-04-19T09:46:32;97689.27;;;10.25;45.26
73106;BME280;61559;50.476;15.588;2023-04-19T09:49:18;97690.34;;;10.35;45.83
73106;BME280;61559;50.476;15.588;2023-04-19T09:52:06;97693.39;;;10.45;45.48
73106;BME280;61559;50.476;15.588;2023-04-19T09:54:37;97700.33;;;10.53;45.55
73106;BME280;61559;50.476;15.588;2023-04-19T09:57:09;97697.77;;;10.52;44.62
73106;BME280;61559;50.476;15.588;2023-04-19T09:59:40;97697.46;;;10.48;45.27
73106;BME280;61559;50.476;15.588;2023-04-19T10:02:12;97696.34;;;10.42;43.87
73106;BME280;61559;50.476;15.588;2023-04-19T10:04:44;97697.44;;;10.29;44.46
73106;BME280;61559;50.476;15.588;2023-04-19T10:07:36;97703.86;;;10.16;44.93
73106;BME280;61559;50.476;15.588;2023-04-19T10:10:09;97709.45;;;10.00;44.34
73106;BME280;61559;50.476;15.588;2023-04-19T10:12:51;97713.48;;;9.78;44.11
73106;BME280;61559;50.476;15.588;2023-04-19T10:15:44;97715.38;;;9.56;43.90
73106;BME280;61559;50.476;15.588;2023-04-19T10:18:26;97720.64;;;9.39;44.32
73106;BME280;61559;50.476;15.588;2023-04-19T10:20:59;97719.73;;;9.24;44.67
73106;BME280;61559;50.476;15.588;2023-04-19T10:23:32;97722.14;;;9.13;44.37
73106;BME280;61559;50.476;15.588;2023-04-19T10:26:03;97716.11;;;9.04;45.49
73106;BME280;61559;50.476;15.588;2023-04-19T10:28:36;97719.91;;;8.99;46.20
73106;BME280;61559;50.476;15.588;2023-04-19T10:31:11;97720.02;;;8.90;46.35
73106;BME280;61559;50.476;15.588;2023-04-19T10:33:43;97722.64;;;8.87;47.09
73106;BME280;61559;50.476;15.588;2023-04-19T10:36:14;97720.48;;;8.86;46.77
73106;BME280;61559;50.476;15.588;2023-04-19T10:38:48;97720.10;;;8.83;47.64
73106;BME280;61559;50.476;15.588;2023-04-19T10:41:21;97720.04;;;8.83;48.32
73106;BME280;61559;50.476;15.588;2023-04-19T10:44:09;97726.45;;;8.84;48.89
73106;BME280;61559;50.476;15.588;2023-04-19T10:46:41;97726.39;;;8.77;49.65
73106;BME280;61559;50.476;15.588;2023-04-19T10:49:12;97728.48;;;8.62;49.96
73106;BME280;61559;50.476;15.588;2023-04-19T10:51:49;97721.70;;;8.56;50.72
73106;BME280;61559;50.476;15.588;2023-04-19T10:54:31;97723.82;;;8.52;51.10
73106;BME280;61559;50.476;15.588;2023-04-19T10:57:05;97724.18;;;8.50;51.95
73106;BME280;61559;50.476;15.588;2023-04-19T10:59:37;97721.27;;;8.50;51.96
73106;BME280;61559;50.476;15.588;2023-04-19T11:02:27;97718.35;;;8.52;51.92
73106;BME280;61559;50.476;15.588;2023-04-19T11:05:04;97716.84;;;8.52;52.08
73106;BME280;61559;50.476;15.588;2023-04-19T11:07:40;97715.23;;;8.54;51.94
73106;BME280;61559;50.476;15.588;2023-04-19T11:10:11;97709.04;;;8.60;51.44
73106;BME280;61559;50.476;15.588;2023-04-19T11:12:44;97702.41;;;8.72;51.00
73106;BME280;61559;50.476;15.588;2023-04-19T11:15:15;97695.76;;;8.81;51.53
73106;BME280;61559;50.476;15.588;2023-04-19T11:17:48;97698.10;;;8.93;51.64
73106;BME280;61559;50.476;15.588;2023-04-19T11:20:33;97701.36;;;8.90;50.97
73106;BME280;61559;50.476;15.588;2023-04-19T11:23:16;97698.85;;;8.90;50.10
73106;BME280;61559;50.476;15.588;2023-04-19T11:25:51;97693.70;;;8.92;50.08
73106;BME280;61559;50.476;15.588;2023-04-19T11:28:22;97691.37;;;8.94;46.81
73106;BME280;61559;50.476;15.588;2023-04-19T11:30:54;97688.36;;;9.00;45.20
73106;BME280;61559;50.476;15.588;2023-04-19T11:33:26;97690.30;;;9.07;46.60
73106;BME280;61559;50.476;15.588;2023-04-19T11:36:03;97688.85;;;9.12;44.13
73106;BME280;61559;50.476;15.588;2023-04-19T11:38:41;97682.69;;;9.09;45.60
73106;BME280;61559;50.476;15.588;2023-04-19T11:41:16;97683.58;;;9.11;45.11
73106;BME280;61559;50.476;15.588;2023-04-19T11:43:47;97686.36;;;9.14;45.13
73106;BME280;61559;50.476;15.588;2023-04-19T11:46:18;97692.68;;;9.15;44.45
73106;BME280;61559;50.476;15.588;2023-04-19T11:48:53;97685.67;;;9.10;43.32
73106;BME280;61559;50.476;15.588;2023-04-19T11:51:26;97683.50;;;9.15;44.62
73106;BME280;61559;50.476;15.588;2023-04-19T11:53:57;97687.15;;;9.24;44.39
73106;BME280;61559;50.476;15.588;2023-04-19T11:56:29;97687.95;;;9.27;45.32
73106;BME280;61559;50.476;15.588;2023-04-19T11:59:00;97691.77;;;9.31;45.51
73106;BME280;61559;50.476;15.588;2023-04-19T12:01:29;97693.95;;;9.37;46.24
73106;BME280;61559;50.476;15.588;2023-04-19T12:04:04;97700.02;;;9.32;42.19
73106;BME280;61559;50.476;15.588;2023-04-19T12:06:36;97692.58;;;9.18;43.55
73106;BME280;61559;50.476;15.588;2023-04-19T12:09:08;97689.10;;;9.13;43.38
73106;BME280;61559;50.476;15.588;2023-04-19T12:11:46;97687.48;;;9.10;43.11
73106;BME280;61559;50.476;15.588;2023-04-19T12:14:20;97689.77;;;9.06;43.80
73106;BME280;61559;50.476;15.588;2023-04-19T12:17:09;97686.27;;;9.06;44.26
73106;BME280;61559;50.476;15.588;2023-04-19T12:19:45;97686.11;;;9.06;45.04
73106;BME280;61559;50.476;15.588;2023-04-19T12:22:17;97692.38;;;9.11;45.54
73106;BME280;61559;50.476;15.588;2023-04-19T12:24:51;97691.17;;;9.12;46.05
73106;BME280;61559;50.476;15.588;2023-04-19T12:27:23;97690.81;;;9.16;45.61
73106;BME280;61559;50.476;15.588;2023-04-19T12:29:54;97689.23;;;9.14;43.65
73106;BME280;61559;50.476;15.588;2023-04-19T12:32:25;97685.10;;;9.08;44.93
73106;BME280;61559;50.476;15.588;2023-04-19T12:34:57;97688.52;;;9.09;45.76
73106;BME280;61559;50.476;15.588;2023-04-19T12:37:28;97688.53;;;9.10;46.29
73106;BME280;61559;50.476;15.588;2023-04-19T12:39:59;97682.27;;;9.14;46.69
73106;BME280;61559;50.476;15.588;2023-04-19T12:42:30;97687.67;;;9.16;45.72
73106;BME280;61559;50.476;15.588;2023-04-19T12:45:02;97679.08;;;9.08;45.21
73106;BME280;61559;50.476;15.588;2023-04-19T12:47:33;97678.36;;;9.08;45.54
73106;BME280;61559;50.476;15.588;2023-04-19T12:50:05;97683.81;;;9.10;45.36
73106;BME280;61559;50.476;15.588;2023-04-19T12:52:37;97684.48;;;8.96;44.29
73106;BME280;61559;50.476;15.588;2023-04-19T12:55:09;97692.94;;;8.83;44.94
73106;BME280;61559;50.476;15.588;2023-04-19T12:57:41;97689.13;;;8.69;45.43
73106;BME280;61559;50.476;15.588;2023-04-19T13:00:13;97682.56;;;8.65;46.11
73106;BME280;61559;50.476;15.588;2023-04-19T13:02:44;97685.41;;;8.79;48.23
73106;BME280;61559;50.476;15.588;2023-04-19T13:05:17;97686.48;;;8.99;47.51
73106;BME280;61559;50.476;15.588;2023-04-19T13:07:48;97685.77;;;9.08;45.79
73106;BME280;61559;50.476;15.588;2023-04-19T13:10:20;97684.49;;;9.12;45.91
73106;BME280;61559;50.476;15.588;2023-04-19T13:12:50;97682.54;;;9.17;45.21
73106;BME280;61559;50.476;15.588;2023-04-19T13:15:19;97689.06;;;9.21;46.80
73106;BME280;61559;50.476;15.588;2023-04-19T13:17:50;97686.30;;;9.25;46.72
73106;BME280;61559;50.476;15.588;2023-04-19T13:20:22;97683.36;;;9.32;47.08
73106;BME280;61559;50.476;15.588;2023-04-19T13:22:53;97675.89;;;9.35;46.76
73106;BME280;61559;50.476;15.588;2023-04-19T13:25:24;97676.58;;;9.39;47.49
73106;BME280;61559;50.476;15.588;2023-04-19T13:27:53;97683.31;;;9.43;47.37
73106;BME280;61559;50.476;15.588;2023-04-19T13:30:24;97678.35;;;9.38;47.16